Time;durP1;ratioP1;P1;durP2;ratioP2;P2;SDS_P1;SDS_P2;PMS_P1;PMS_P2;Temp;Humidity;BMP_temperature;BMP_pressure;BME280_temperature;BME280_humidity;BME280_pressure;Samples;Min_cycle;Max_cycle;Signal;HPM_P1;HPM_P2
2022/03/10 00:00:58;;;;;;;19.90;10.07;;;6.90;99.90;;;;;;6250199;22;20023;-92
2022/03/10 00:03:27;;;;;;;22.73;10.43;;;6.90;99.90;;;;;;6250676;22;20019;-92
2022/03/10 00:05:54;;;;;;;22.05;11.80;;;6.90;99.90;;;;;;6250654;22;20023;-92
2022/03/10 00:08:21;;;;;;;21.58;10.18;;;6.90;99.90;;;;;;6250275;22;20019;-92
2022/03/10 00:10:48;;;;;;;23.67;10.60;;;6.90;99.90;;;;;;6250605;22;20107;-93
2022/03/10 00:13:16;;;;;;;21.38;11.00;;;6.80;99.90;;;;;;6250999;22;20024;-93
2022/03/10 00:15:43;;;;;;;21.17;10.50;;;6.80;99.90;;;;;;6250191;22;20054;-92
2022/03/10 00:18:10;;;;;;;19.23;9.45;;;6.80;99.90;;;;;;6250409;22;20019;-93
2022/03/10 00:20:37;;;;;;;25.00;10.45;;;6.80;99.90;;;;;;6250033;22;20015;-92
2022/03/10 00:23:04;;;;;;;18.92;10.45;;;6.80;99.90;;;;;;6250900;22;20019;-92
2022/03/10 00:25:33;;;;;;;22.02;10.73;;;6.80;99.90;;;;;;6250534;22;20423;-93
2022/03/10 00:28:00;;;;;;;19.90;10.02;;;6.70;99.90;;;;;;6275117;22;20024;-93
2022/03/10 00:30:27;;;;;;;16.77;9.20;;;6.70;99.90;;;;;;6250220;22;20107;-92
2022/03/10 00:32:54;;;;;;;20.92;10.70;;;6.70;99.90;;;;;;6275053;22;20043;-92
2022/03/10 00:35:23;;;;;;;18.00;10.27;;;6.70;99.90;;;;;;6249685;22;20489;-92
2022/03/10 00:37:57;;;;;;;22.45;10.07;;;6.70;99.90;;;;;;6251355;22;20015;-92
2022/03/10 00:40:24;;;;;;;22.73;9.98;;;6.70;99.90;;;;;;6249730;22;20047;-92
2022/03/10 00:42:51;;;;;;;20.95;10.15;;;6.60;99.90;;;;;;6249161;22;20074;-92
2022/03/10 00:45:19;;;;;;;17.85;9.48;;;6.60;99.90;;;;;;6249958;22;20011;-92
2022/03/10 00:47:46;;;;;;;20.67;11.10;;;6.60;99.90;;;;;;6249930;22;20450;-91
2022/03/10 00:50:14;;;;;;;23.25;10.60;;;6.60;99.90;;;;;;6249745;22;20035;-92
2022/03/10 00:52:43;;;;;;;18.42;9.50;;;6.60;99.90;;;;;;6249545;22;20026;-92
2022/03/10 00:55:12;;;;;;;24.42;11.65;;;6.50;99.90;;;;;;6275965;22;20394;-92
2022/03/10 00:57:39;;;;;;;18.88;10.07;;;6.50;99.90;;;;;;6225209;22;20089;-92
2022/03/10 01:00:09;;;;;;;19.88;11.48;;;6.50;99.90;;;;;;6250049;22;20352;-92
2022/03/10 01:02:36;;;;;;;20.55;10.73;;;6.50;99.90;;;;;;6250917;22;20015;-92
2022/03/10 01:05:05;;;;;;;19.88;10.25;;;6.50;99.90;;;;;;6227143;22;20023;-91
2022/03/10 01:07:33;;;;;;;22.67;11.68;;;6.40;99.90;;;;;;6253139;22;20070;-93
2022/03/10 01:10:02;;;;;;;22.05;10.98;;;6.40;99.90;;;;;;6278203;22;20023;-93
2022/03/10 01:12:31;;;;;;;20.48;9.40;;;6.40;99.90;;;;;;6252361;22;20020;-92
2022/03/10 01:14:59;;;;;;;22.25;10.15;;;6.40;99.90;;;;;;6252129;22;20046;-92
2022/03/10 01:17:29;;;;;;;21.63;11.55;;;6.30;99.90;;;;;;6253648;22;20016;-93
2022/03/10 01:19:56;;;;;;;26.55;13.75;;;6.30;99.90;;;;;;6278092;22;20045;-93
2022/03/10 01:22:23;;;;;;;25.00;11.30;;;6.30;99.90;;;;;;6277700;22;20118;-93
2022/03/10 01:24:50;;;;;;;16.77;8.90;;;6.30;99.90;;;;;;6227058;22;20113;-93
2022/03/10 01:27:17;;;;;;;20.42;10.55;;;6.30;99.90;;;;;;6226679;22;20022;-92
2022/03/10 01:29:44;;;;;;;18.42;9.32;;;6.30;99.90;;;;;;6252211;22;20413;-92
2022/03/10 01:32:12;;;;;;;33.90;15.45;;;6.30;99.90;;;;;;6252064;22;20082;-92
2022/03/10 01:34:39;;;;;;;18.80;9.95;;;6.20;99.90;;;;;;6251888;22;20023;-93
2022/03/10 01:37:06;;;;;;;22.33;10.23;;;6.20;99.90;;;;;;6251715;22;20442;-92
2022/03/10 01:39:33;;;;;;;21.08;10.10;;;6.20;99.90;;;;;;6276902;22;20020;-91
2022/03/10 01:42:03;;;;;;;20.50;9.75;;;6.20;99.90;;;;;;6252259;22;20024;-92
2022/03/10 01:44:30;;;;;;;24.92;10.52;;;6.20;99.90;;;;;;6252298;22;20020;-91
2022/03/10 01:46:58;;;;;;;22.05;10.65;;;6.20;99.90;;;;;;6252099;22;20020;-92
2022/03/10 01:49:25;;;;;;;17.25;9.90;;;6.20;99.90;;;;;;6276483;22;20477;-92
2022/03/10 01:51:53;;;;;;;21.95;10.50;;;6.20;99.90;;;;;;6251419;22;20094;-92
2022/03/10 01:54:21;;;;;;;26.02;11.93;;;6.20;99.90;;;;;;6250866;22;20020;-92
2022/03/10 01:56:49;;;;;;;19.02;10.32;;;6.10;99.90;;;;;;6251074;22;20439;-93
2022/03/10 01:59:17;;;;;;;23.08;11.63;;;6.10;99.90;;;;;;6251912;22;20370;-92
2022/03/10 02:01:44;;;;;;;16.75;9.27;;;6.10;99.90;;;;;;6251102;22;20019;-91
2022/03/10 02:04:13;;;;;;;21.10;10.15;;;6.00;99.90;;;;;;6251259;22;20019;-92
2022/03/10 02:06:40;;;;;;;22.88;10.55;;;6.00;99.90;;;;;;6251204;22;20394;-92
2022/03/10 02:11:53;;;;;;;20.35;10.90;;;6.00;99.90;;;;;;6250789;22;20023;-92
2022/03/10 02:17:21;;;;;;;18.88;9.25;;;6.00;99.90;;;;;;6250818;22;20024;-92
2022/03/10 02:19:50;;;;;;;25.67;14.27;;;6.00;99.90;;;;;;6254299;22;20069;-92
2022/03/10 02:22:20;;;;;;;19.38;9.93;;;5.90;99.90;;;;;;6278257;22;20007;-93
2022/03/10 02:24:48;;;;;;;20.77;11.45;;;5.90;99.90;;;;;;6277338;22;20023;-92
2022/03/10 02:27:22;;;;;;;18.58;9.48;;;5.90;99.90;;;;;;6251590;22;20034;-93
2022/03/10 02:29:52;;;;;;;24.35;10.82;;;5.90;99.90;;;;;;6251444;22;20043;-92
2022/03/10 02:32:20;;;;;;;19.55;9.93;;;5.90;99.90;;;;;;6251152;22;20077;-93
2022/03/10 02:34:49;;;;;;;17.00;9.88;;;5.90;99.90;;;;;;6250838;22;20047;-93
2022/03/10 02:37:19;;;;;;;21.80;9.77;;;5.80;99.90;;;;;;6251286;22;20119;-93
2022/03/10 02:39:46;;;;;;;20.52;9.43;;;5.80;99.90;;;;;;6251323;22;20381;-92
2022/03/10 02:42:14;;;;;;;21.10;10.43;;;5.80;99.90;;;;;;6251507;22;20031;-92
2022/03/10 02:44:44;;;;;;;19.52;10.38;;;5.80;99.90;;;;;;6251291;22;20020;-92
2022/03/10 02:47:11;;;;;;;21.70;10.38;;;5.80;99.90;;;;;;6252341;22;20016;-91
2022/03/10 02:49:40;;;;;;;30.17;11.63;;;5.70;99.90;;;;;;6250828;22;20046;-92
2022/03/10 02:52:08;;;;;;;20.67;10.82;;;5.70;99.90;;;;;;6251728;22;20019;-92
2022/03/10 02:54:43;;;;;;;20.65;10.60;;;5.60;99.90;;;;;;6274989;22;20023;-92
2022/03/10 02:57:14;;;;;;;20.70;11.07;;;5.60;99.90;;;;;;6251663;22;20016;-91
2022/03/10 02:59:41;;;;;;;19.60;10.65;;;5.60;99.90;;;;;;6251198;22;20026;-92
2022/03/10 03:02:09;;;;;;;21.27;10.68;;;5.60;99.90;;;;;;6251306;22;20053;-92
2022/03/10 03:04:36;;;;;;;17.48;8.82;;;5.70;99.90;;;;;;6250946;22;20439;-92
2022/03/10 03:07:03;;;;;;;18.52;10.95;;;5.70;99.90;;;;;;6250795;22;20011;-92
2022/03/10 03:09:30;;;;;;;24.08;9.88;;;5.70;99.90;;;;;;6250502;22;20055;-92
2022/03/10 03:11:57;;;;;;;18.77;9.65;;;5.70;99.90;;;;;;6250537;22;20350;-92
2022/03/10 03:14:24;;;;;;;21.25;10.38;;;5.70;99.90;;;;;;6275755;22;20020;-92
2022/03/10 03:16:54;;;;;;;21.63;9.85;;;5.70;99.90;;;;;;6250634;22;20015;-92
2022/03/10 03:19:22;;;;;;;22.45;10.00;;;5.60;99.90;;;;;;6276466;22;20073;-92
2022/03/10 03:21:50;;;;;;;21.58;10.48;;;5.60;99.90;;;;;;6250644;22;20020;-92
2022/03/10 03:24:18;;;;;;;20.50;9.77;;;5.60;99.90;;;;;;6250585;22;20020;-92
2022/03/10 03:26:47;;;;;;;20.98;9.32;;;5.60;99.90;;;;;;6252053;22;20016;-93
2022/03/10 03:29:14;;;;;;;21.98;10.95;;;5.60;99.90;;;;;;6278047;22;20027;-92
2022/03/10 03:31:43;;;;;;;20.95;9.70;;;5.60;99.90;;;;;;6277552;22;20015;-91
2022/03/10 03:34:10;;;;;;;26.63;10.55;;;5.60;99.90;;;;;;6276000;22;20387;-92
2022/03/10 03:36:44;;;;;;;19.38;10.05;;;5.60;99.90;;;;;;6250813;22;20043;-93
2022/03/10 03:39:11;;;;;;;;;;;5.50;99.90;;;;;;6276809;22;20069;-92
2022/03/10 03:41:39;;;;;;;18.88;9.20;;;5.50;99.90;;;;;;6250603;22;19922;-92
2022/03/10 03:44:09;;;;;;;24.88;9.25;;;5.50;99.90;;;;;;6277048;22;20014;-92
2022/03/10 03:46:37;;;;;;;23.40;11.05;;;5.50;99.90;;;;;;6251509;22;20042;-92
2022/03/10 03:49:07;;;;;;;21.58;11.27;;;5.50;99.90;;;;;;6275180;22;20094;-92
2022/03/10 03:51:35;;;;;;;22.85;10.35;;;5.50;99.90;;;;;;6250191;22;20031;-93
2022/03/10 03:54:03;;;;;;;22.70;11.35;;;5.50;99.90;;;;;;6249781;22;20069;-92
2022/03/10 03:56:29;;;;;;;21.02;10.57;;;5.50;99.90;;;;;;6250064;22;20016;-92
2022/03/10 03:58:56;;;;;;;21.55;10.75;;;5.40;99.90;;;;;;6250034;22;20085;-91
2022/03/10 04:01:23;;;;;;;24.33;12.10;;;5.40;99.90;;;;;;6249966;22;20435;-92
2022/03/10 04:03:51;;;;;;;20.73;11.18;;;5.40;99.90;;;;;;6249464;22;20324;-91
2022/03/10 04:06:18;;;;;;;22.55;10.98;;;5.40;99.90;;;;;;6250223;22;20061;-91
2022/03/10 04:08:45;;;;;;;23.75;12.52;;;5.40;99.90;;;;;;6249916;22;20024;-91
2022/03/10 04:11:16;;;;;;;21.10;10.45;;;5.30;99.90;;;;;;6226139;22;20102;-92
2022/03/10 04:13:43;;;;;;;20.80;10.07;;;5.30;99.90;;;;;;6275014;22;20534;-92
2022/03/10 04:16:10;;;;;;;22.52;12.07;;;5.30;99.90;;;;;;6249950;22;20023;-92
2022/03/10 04:18:38;;;;;;;20.08;10.15;;;5.30;99.90;;;;;;6250032;22;20027;-92
2022/03/10 04:21:05;;;;;;;24.77;11.73;;;5.30;99.90;;;;;;6249846;22;20043;-91
2022/03/10 04:23:32;;;;;;;16.80;9.30;;;5.30;99.90;;;;;;6249597;22;20043;-92
2022/03/10 04:26:00;;;;;;;20.92;9.93;;;5.30;99.90;;;;;;6250336;22;20023;-92
2022/03/10 04:28:28;;;;;;;20.02;10.27;;;5.30;99.90;;;;;;6249694;22;20011;-92
2022/03/10 04:30:55;;;;;;;22.15;11.48;;;5.30;99.90;;;;;;6249944;22;20031;-92
2022/03/10 04:33:22;;;;;;;23.42;10.32;;;5.20;99.90;;;;;;6224951;22;20287;-92
2022/03/10 04:35:52;;;;;;;22.40;11.43;;;5.20;99.90;;;;;;6250163;22;20384;-92
2022/03/10 04:38:22;;;;;;;24.70;11.43;;;5.20;99.90;;;;;;6249686;22;20069;-91
2022/03/10 04:40:49;;;;;;;20.83;11.77;;;5.20;99.90;;;;;;6249916;22;20276;-92
2022/03/10 04:43:16;;;;;;;22.92;11.60;;;5.20;99.90;;;;;;6274902;22;20450;-91
2022/03/10 04:45:43;;;;;;;20.02;10.75;;;5.20;99.90;;;;;;6249924;22;20089;-91
2022/03/10 04:48:11;;;;;;;23.13;11.70;;;5.20;99.90;;;;;;6249882;22;20487;-92
2022/03/10 04:50:39;;;;;;;25.35;12.00;;;5.20;99.90;;;;;;6249688;22;20107;-92
2022/03/10 04:53:06;;;;;;;21.05;10.85;;;5.20;99.90;;;;;;6249563;22;20095;-92
2022/03/10 04:55:33;;;;;;;26.70;12.02;;;5.10;99.90;;;;;;6250165;22;20129;-91
2022/03/10 04:58:00;;;;;;;20.27;10.13;;;5.10;99.90;;;;;;6249596;22;20047;-92
2022/03/10 05:00:29;;;;;;;20.65;9.98;;;5.10;99.90;;;;;;6249967;22;20027;-91
2022/03/10 05:02:56;;;;;;;27.35;10.10;;;5.10;99.90;;;;;;6275035;22;20026;-91
2022/03/10 05:05:24;;;;;;;28.17;11.38;;;5.10;99.90;;;;;;6249775;22;20015;-89
2022/03/10 05:07:54;;;;;;;20.20;10.65;;;5.10;99.90;;;;;;6250879;22;20038;-94
2022/03/10 05:10:24;;;;;;;;;;;5.00;99.90;;;;;;6252393;22;20036;-91
2022/03/10 05:13:00;;;;;;;18.05;9.60;;;5.00;99.90;;;;;;6276602;22;19994;-91
2022/03/10 05:15:57;;;;;;;20.40;10.50;;;5.00;99.90;;;;;;6249852;22;20019;-93
2022/03/10 05:19:22;;;;;;;21.85;10.07;;;5.00;99.90;;;;;;6218822;22;20090;-94
2022/03/10 05:21:57;;;;;;;;;;;5.00;99.90;;;;;;6250578;22;20020;-92
2022/03/10 05:24:31;;;;;;;22.05;9.75;;;5.00;99.90;;;;;;6275177;22;19969;-92
2022/03/10 05:27:06;;;;;;;23.25;10.07;;;5.00;99.90;;;;;;6251240;22;20016;-91
2022/03/10 05:29:33;;;;;;;21.15;9.93;;;5.00;99.90;;;;;;6249849;22;20015;-91
2022/03/10 05:32:00;;;;;;;26.52;12.77;;;4.90;99.90;;;;;;6274502;22;20300;-91
2022/03/10 05:34:27;;;;;;;23.27;11.85;;;4.90;99.90;;;;;;6274822;22;20012;-90
2022/03/10 05:36:54;;;;;;;23.15;9.57;;;4.90;99.90;;;;;;6250000;22;20427;-90
2022/03/10 05:39:27;;;;;;;21.95;10.68;;;4.90;99.90;;;;;;6251395;22;20030;-91
2022/03/10 05:41:54;;;;;;;20.58;10.63;;;4.90;99.90;;;;;;6249824;22;20015;-91
2022/03/10 05:44:20;;;;;;;21.05;10.75;;;4.80;99.90;;;;;;6249333;22;20044;-91
2022/03/10 05:46:47;;;;;;;25.02;11.15;;;4.80;99.90;;;;;;6249565;22;20020;-91
2022/03/10 05:49:54;;;;;;;24.83;10.82;;;4.80;99.90;;;;;;6275845;22;20012;-93
2022/03/10 05:52:29;;;;;;;20.35;10.32;;;4.80;99.90;;;;;;6228247;22;20020;-93
2022/03/10 05:54:56;;;;;;;34.53;15.25;;;4.70;99.90;;;;;;6276548;22;20015;-92
2022/03/10 05:57:23;;;;;;;32.83;15.30;;;4.70;99.90;;;;;;6251719;22;20458;-93
2022/03/10 05:59:51;;;;;;;40.58;14.52;;;4.70;99.90;;;;;;6276906;22;20134;-92
2022/03/10 06:02:18;;;;;;;32.83;14.27;;;4.70;99.90;;;;;;6251444;22;20065;-92
2022/03/10 06:04:49;;;;;;;29.58;13.27;;;4.70;99.90;;;;;;6277293;22;20050;-92
2022/03/10 06:07:16;;;;;;;31.35;14.40;;;4.80;99.90;;;;;;6250515;22;20015;-92
2022/03/10 06:09:48;;;;;;;26.35;12.65;;;4.70;99.90;;;;;;6249734;22;20023;-94
2022/03/10 06:12:23;;;;;;;29.48;13.73;;;4.70;99.90;;;;;;6252655;22;20049;-92
2022/03/10 06:15:01;;;;;;;26.80;12.60;;;4.70;99.90;;;;;;6276728;22;20031;-91
2022/03/10 06:17:29;;;;;;;25.02;12.50;;;4.70;99.90;;;;;;6251263;22;20027;-91
2022/03/10 06:19:57;;;;;;;31.60;12.88;;;4.70;99.90;;;;;;6276476;22;20039;-92
2022/03/10 06:22:29;;;;;;;29.90;13.20;;;4.70;99.90;;;;;;6250705;22;20030;-92
2022/03/10 06:24:57;;;;;;;31.02;14.95;;;4.60;99.90;;;;;;6251415;22;20020;-92
2022/03/10 06:27:29;;;;;;;25.58;12.02;;;4.70;99.90;;;;;;6250519;22;20062;-93
2022/03/10 06:29:59;;;;;;;28.73;12.63;;;4.60;99.90;;;;;;6277141;22;20020;-93
2022/03/10 06:32:33;;;;;;;26.92;12.90;;;4.70;99.90;;;;;;6228205;22;20396;-93
2022/03/10 06:35:00;;;;;;;25.88;11.63;;;4.60;99.90;;;;;;6251351;22;20027;-93
2022/03/10 06:37:31;;;;;;;25.30;10.10;;;4.60;99.90;;;;;;6252866;22;20049;-93
2022/03/10 06:39:59;;;;;;;23.05;12.18;;;4.60;99.90;;;;;;6251628;22;20024;-93
2022/03/10 06:42:29;;;;;;;23.70;11.48;;;4.60;99.90;;;;;;6251525;22;20019;-93
2022/03/10 06:44:56;;;;;;;26.40;12.20;;;4.60;99.90;;;;;;6251444;22;20020;-92
2022/03/10 06:47:26;;;;;;;26.83;13.10;;;4.60;99.90;;;;;;6251489;22;20057;-92
2022/03/10 06:49:56;;;;;;;26.55;11.30;;;4.60;99.90;;;;;;6225420;22;20023;-93
2022/03/10 06:52:31;;;;;;;26.52;13.20;;;4.60;99.90;;;;;;6253809;22;20073;-93
2022/03/10 06:54:59;;;;;;;23.25;11.50;;;4.60;99.90;;;;;;6276981;22;20443;-94
2022/03/10 06:57:35;;;;;;;26.77;12.48;;;4.60;99.90;;;;;;6251627;22;20020;-93
2022/03/10 07:00:05;;;;;;;23.95;11.75;;;4.60;99.90;;;;;;6251054;22;20030;-92
2022/03/10 07:02:32;;;;;;;24.65;11.18;;;4.60;99.90;;;;;;6251436;22;20070;-93
2022/03/10 07:04:59;;;;;;;29.10;13.68;;;4.60;99.90;;;;;;6250791;22;20342;-92
2022/03/10 07:07:26;;;;;;;22.08;11.55;;;4.60;99.90;;;;;;6251836;22;20046;-92
2022/03/10 07:09:53;;;;;;;28.35;12.18;;;4.60;99.90;;;;;;6250721;22;20020;-93
2022/03/10 07:12:20;;;;;;;24.67;12.40;;;4.60;99.90;;;;;;6250624;22;20098;-92
2022/03/10 07:14:48;;;;;;;23.95;11.20;;;4.60;99.90;;;;;;6250607;22;20031;-93
2022/03/10 07:17:17;;;;;;;25.15;12.90;;;4.60;99.90;;;;;;6250526;22;20102;-92
2022/03/10 07:19:45;;;;;;;22.85;11.13;;;4.50;99.90;;;;;;6251337;22;20038;-92
2022/03/10 07:22:18;;;;;;;22.48;11.32;;;4.50;99.90;;;;;;6250447;22;20023;-93
2022/03/10 07:24:45;;;;;;;25.58;12.57;;;4.50;99.90;;;;;;6276820;22;20050;-93
2022/03/10 07:27:12;;;;;;;22.08;11.32;;;4.50;99.90;;;;;;6276353;22;20008;-92
2022/03/10 07:29:39;;;;;;;23.23;12.30;;;4.50;99.90;;;;;;6276706;22;20065;-93
2022/03/10 07:32:07;;;;;;;37.90;15.45;;;4.50;99.90;;;;;;6251316;22;20061;-93
2022/03/10 07:34:34;;;;;;;24.13;12.35;;;4.50;99.90;;;;;;6250926;22;20505;-93
2022/03/10 07:37:01;;;;;;;25.85;12.30;;;4.50;99.90;;;;;;6251672;22;20426;-93
2022/03/10 07:39:29;;;;;;;28.77;14.52;;;4.50;99.90;;;;;;6227347;22;20019;-93
2022/03/10 07:42:00;;;;;;;31.20;13.07;;;4.50;99.90;;;;;;6250814;22;20434;-92
2022/03/10 07:44:27;;;;;;;33.63;15.07;;;4.50;99.90;;;;;;6250415;22;20019;-93
2022/03/10 07:46:54;;;;;;;37.35;15.20;;;4.50;99.90;;;;;;6250851;22;20023;-92
2022/03/10 07:49:21;;;;;;;30.77;14.43;;;4.50;99.90;;;;;;6251800;22;20016;-92
2022/03/10 07:51:53;;;;;;;31.52;15.95;;;4.60;99.90;;;;;;6251277;22;20102;-93
2022/03/10 07:54:22;;;;;;;30.60;15.77;;;4.60;99.90;;;;;;6225801;22;20023;-93
2022/03/10 07:56:50;;;;;;;27.52;15.35;;;4.70;99.90;;;;;;6251818;22;20069;-93
2022/03/10 07:59:17;;;;;;;29.75;13.80;;;4.80;99.90;;;;;;6250815;22;20031;-93
2022/03/10 08:01:44;;;;;;;27.30;13.50;;;4.90;99.90;;;;;;6277571;22;20023;-92
2022/03/10 08:04:12;;;;;;;35.95;16.17;;;4.90;99.90;;;;;;6276324;22;20335;-93
2022/03/10 08:06:41;;;;;;;28.58;14.23;;;5.00;99.90;;;;;;6251145;22;20015;-93
2022/03/10 08:09:12;;;;;;;32.83;15.07;;;5.00;99.90;;;;;;6273816;22;20019;-94
2022/03/10 08:11:40;;;;;;;43.90;17.67;;;5.10;99.90;;;;;;6200744;22;20350;-93
2022/03/10 08:14:08;;;;;;;31.75;15.70;;;5.20;99.90;;;;;;6250685;22;20439;-93
2022/03/10 08:16:35;;;;;;;31.58;15.52;;;5.20;99.90;;;;;;6250893;22;20024;-93
2022/03/10 08:19:09;;;;;;;34.75;15.57;;;5.30;99.90;;;;;;6276412;22;20366;-93
2022/03/10 08:21:36;;;;;;;34.05;15.68;;;5.40;99.90;;;;;;6250163;22;20082;-92
2022/03/10 08:24:04;;;;;;;37.28;16.05;;;5.50;99.90;;;;;;6250657;22;20012;-92
2022/03/10 08:26:31;;;;;;;30.63;16.40;;;5.60;99.90;;;;;;6276407;22;20024;-94
2022/03/10 08:28:59;;;;;;;33.97;15.82;;;5.80;99.90;;;;;;6276076;22;20022;-94
2022/03/10 08:31:29;;;;;;;36.20;16.23;;;5.90;99.90;;;;;;6252010;22;20020;-93
2022/03/10 08:33:57;;;;;;;30.13;14.82;;;6.00;99.90;;;;;;6250804;22;20103;-92
2022/03/10 08:36:24;;;;;;;33.28;16.23;;;6.00;99.90;;;;;;6250271;22;20463;-93
2022/03/10 08:38:51;;;;;;;35.53;16.75;;;6.10;99.90;;;;;;6249809;22;20467;-94
2022/03/10 08:41:18;;;;;;;33.63;17.20;;;6.30;99.90;;;;;;6249727;22;20020;-92
2022/03/10 08:43:45;;;;;;;37.65;17.33;;;6.30;99.90;;;;;;6250925;22;20022;-92
2022/03/10 08:46:12;;;;;;;36.55;17.90;;;6.40;99.90;;;;;;6250980;22;20016;-93
2022/03/10 08:48:40;;;;;;;42.47;17.27;;;6.50;99.90;;;;;;6249913;22;20051;-93
2022/03/10 08:51:08;;;;;;;35.03;16.08;;;6.60;99.90;;;;;;6250794;22;20370;-94
2022/03/10 08:53:37;;;;;;;39.38;17.45;;;6.60;99.90;;;;;;6275947;22;20023;-91
2022/03/10 08:56:06;;;;;;;35.00;17.02;;;6.70;99.90;;;;;;6250363;22;20024;-93
2022/03/10 08:58:33;;;;;;;38.60;16.08;;;6.80;99.90;;;;;;6276263;22;20386;-93
2022/03/10 09:01:00;;;;;;;35.88;17.42;;;6.90;99.90;;;;;;6250342;22;20020;-92
2022/03/10 09:03:47;;;;;;;34.25;16.13;;;6.90;99.90;;;;;;6249870;22;20030;-93
2022/03/10 09:06:16;;;;;;;34.95;16.80;;;6.90;99.90;;;;;;6250254;22;20431;-93
2022/03/10 09:08:45;;;;;;;34.90;15.68;;;7.10;99.90;;;;;;6276099;22;20461;-92
2022/03/10 09:11:12;;;;;;;34.05;17.05;;;7.20;99.90;;;;;;6250235;22;20019;-92
2022/03/10 09:13:43;;;;;;;35.08;15.75;;;7.30;99.90;;;;;;6275605;22;20517;-93
2022/03/10 09:16:11;;;;;;;33.40;15.85;;;7.50;99.90;;;;;;6275727;22;20024;-93
2022/03/10 09:18:38;;;;;;;41.35;17.08;;;7.60;99.90;;;;;;6250654;22;20019;-93
2022/03/10 09:21:06;;;;;;;38.65;15.13;;;7.70;99.90;;;;;;6250171;22;20062;-93
2022/03/10 09:23:33;;;;;;;36.38;15.57;;;7.70;99.90;;;;;;6252262;22;20023;-92
2022/03/10 09:26:01;;;;;;;34.65;17.75;;;7.80;99.90;;;;;;6252001;22;20050;-92
2022/03/10 09:28:31;;;;;;;34.97;16.65;;;7.90;99.90;;;;;;6253279;22;20016;-91
2022/03/10 09:30:58;;;;;;;36.60;18.02;;;8.10;99.90;;;;;;6277719;22;20038;-93
2022/03/10 09:33:25;;;;;;;33.80;16.13;;;8.10;99.90;;;;;;6251732;22;20504;-92
2022/03/10 09:35:53;;;;;;;41.72;16.40;;;8.10;99.90;;;;;;6252912;22;20019;-93
2022/03/10 09:38:20;;;;;;;36.40;16.27;;;8.20;99.90;;;;;;6277730;22;20346;-93
2022/03/10 09:40:52;;;;;;;36.25;17.10;;;8.20;99.90;;;;;;6278732;22;20487;-92
2022/03/10 09:43:26;;;;;;;35.42;15.40;;;8.30;99.90;;;;;;6251518;22;20020;-92
2022/03/10 09:45:53;;;;;;;36.15;16.45;;;8.50;99.90;;;;;;6251887;22;20086;-92
2022/03/10 09:48:20;;;;;;;39.53;16.23;;;8.60;99.90;;;;;;6251788;22;20023;-92
2022/03/10 09:50:49;;;;;;;35.95;17.83;;;8.60;99.90;;;;;;6251750;22;20339;-92
2022/03/10 09:53:18;;;;;;;42.80;18.83;;;8.80;99.90;;;;;;6251416;22;20031;-92
2022/03/10 09:55:46;;;;;;;35.45;17.58;;;8.90;99.90;;;;;;6226749;22;20020;-92
2022/03/10 09:58:13;;;;;;;37.47;16.13;;;9.10;99.90;;;;;;6252167;22;20024;-92
2022/03/10 10:00:40;;;;;;;38.63;18.23;;;9.10;99.90;;;;;;6251738;22;20024;-92
2022/03/10 10:03:08;;;;;;;35.33;16.15;;;9.30;99.90;;;;;;6251512;22;20053;-92
2022/03/10 10:05:40;;;;;;;34.83;16.70;;;9.30;99.90;;;;;;6251895;22;20027;-92
2022/03/10 10:08:10;;;;;;;41.90;17.77;;;9.30;99.90;;;;;;6252297;22;20094;-93
2022/03/10 10:10:39;;;;;;;41.80;17.63;;;9.40;99.90;;;;;;6251848;22;20024;-93
2022/03/10 10:13:24;;;;;;;39.83;18.98;;;9.60;89.00;;;;;;6251251;22;20027;-93
2022/03/10 10:16:00;;;;;;;36.60;18.00;;;9.50;69.90;;;;;;6251675;22;20038;-93
2022/03/10 10:18:28;;;;;;;38.10;17.02;;;9.60;37.80;;;;;;6251975;22;20015;-92
2022/03/10 10:21:12;;;;;;;35.23;18.33;;;9.70;28.60;;;;;;6254628;22;20015;-92
2022/03/10 10:23:40;;;;;;;37.20;17.13;;;9.80;21.90;;;;;;6276497;22;20435;-92
2022/03/10 10:26:09;;;;;;;31.52;16.48;;;10.00;18.70;;;;;;6251139;22;20110;-92
2022/03/10 10:28:48;;;;;;;34.13;16.30;;;10.10;16.40;;;;;;6252788;22;20435;-92
2022/03/10 10:31:16;;;;;;;39.45;16.52;;;10.20;15.70;;;;;;6251364;22;20103;-92
2022/03/10 10:33:57;;;;;;;40.35;17.73;;;10.20;14.50;;;;;;6251124;22;20015;-91
2022/03/10 10:36:30;;;;;;;36.10;16.40;;;10.30;15.20;;;;;;6251021;22;20042;-91
2022/03/10 10:39:07;;;;;;;39.63;16.65;;;10.40;11.60;;;;;;6277269;22;20443;-92
2022/03/10 10:41:37;;;;;;;34.72;16.40;;;10.50;9.80;;;;;;6251104;22;20015;-91
2022/03/10 10:44:16;;;;;;;35.88;16.85;;;10.50;11.10;;;;;;6278853;22;20087;-93
2022/03/10 10:46:45;;;;;;;40.45;17.05;;;10.70;9.00;;;;;;6252850;22;20015;-92
2022/03/10 10:49:15;;;;;;;33.55;14.93;;;10.70;9.00;;;;;;6252439;22;20012;-92
2022/03/10 10:51:45;;;;;;;38.45;17.20;;;10.70;9.00;;;;;;6251218;22;20042;-93
2022/03/10 10:54:24;;;;;;;37.58;15.75;;;10.90;9.10;;;;;;6250701;22;20019;-92
2022/03/10 10:57:03;;;;;;;41.00;16.25;;;11.00;9.20;;;;;;6251511;22;20077;-92
2022/03/10 10:59:30;;;;;;;33.53;17.15;;;10.90;11.60;;;;;;6251748;22;20094;-92
2022/03/10 11:02:22;;;;;;;37.25;16.23;;;10.80;15.50;;;;;;6253193;22;20020;-92
2022/03/10 11:04:51;;;;;;;42.95;17.45;;;11.00;13.00;;;;;;6251580;22;20358;-92
2022/03/10 11:07:21;;;;;;;39.63;17.05;;;11.20;12.00;;;;;;6226112;22;20019;-91
2022/03/10 11:09:49;;;;;;;35.50;16.67;;;11.30;9.50;;;;;;6276681;22;20500;-92
2022/03/10 11:12:20;;;;;;;40.33;16.50;;;11.40;9.50;;;;;;6252093;22;20035;-92
2022/03/10 11:14:48;;;;;;;30.67;15.85;;;11.50;9.70;;;;;;6277890;22;20352;-93
2022/03/10 11:17:17;;;;;;;34.50;15.68;;;11.50;9.60;;;;;;6251760;22;20027;-92
2022/03/10 11:19:50;;;;;;;34.00;15.45;;;11.50;9.70;;;;;;6251210;22;20023;-92
2022/03/10 11:22:36;;;;;;;37.88;14.93;;;11.50;9.60;;;;;;6252230;22;20521;-93
2022/03/10 11:25:06;;;;;;;;;;;11.70;9.50;;;;;;6252501;22;20346;-92
2022/03/10 11:27:41;;;;;;;32.35;15.50;;;11.70;9.70;;;;;;6253003;22;19978;-92
2022/03/10 11:30:15;;;;;;;27.70;14.00;;;11.80;9.90;;;;;;6252361;22;20016;-93
2022/03/10 11:33:16;;;;;;;32.25;14.75;;;11.80;10.40;;;;;;6276474;22;20103;-93
2022/03/10 11:35:50;;;;;;;40.45;17.50;;;11.90;9.90;;;;;;6250771;22;20110;-93
2022/03/10 11:38:49;;;;;;;33.38;14.07;;;12.20;10.10;;;;;;6249819;22;20023;-93
2022/03/10 11:41:27;;;;;;;28.77;15.02;;;12.30;9.90;;;;;;6249849;22;20430;-93
2022/03/10 11:44:12;;;;;;;34.00;14.68;;;12.40;9.50;;;;;;6250798;22;20011;-94
2022/03/10 11:46:57;;;;;;;31.50;14.68;;;12.40;9.80;;;;;;6250223;22;20016;-92
2022/03/10 11:49:41;;;;;;;29.52;15.63;;;12.50;10.30;;;;;;6275055;22;20413;-92
2022/03/10 11:52:22;;;;;;;29.85;15.43;;;12.60;10.40;;;;;;6250479;22;20019;-94
2022/03/10 11:55:08;;;;;;;30.77;14.80;;;12.80;10.50;;;;;;6251306;22;20031;-93
2022/03/10 11:58:04;;;;;;;28.55;13.73;;;12.70;10.30;;;;;;6251549;22;20023;-93
2022/03/10 12:00:49;;;;;;;;;;;12.80;10.40;;;;;;6226252;22;20020;-92
2022/03/10 12:03:31;;;;;;;31.58;14.15;;;12.90;10.60;;;;;;6226492;22;19915;-93
2022/03/10 12:06:05;;;;;;;31.75;15.18;;;13.00;10.60;;;;;;6276825;22;20383;-90
2022/03/10 12:08:37;;;;;;;36.72;17.05;;;13.20;9.10;;;;;;6251154;22;20008;-92
2022/03/10 12:11:16;;;;;;;33.72;15.98;;;13.10;10.80;;;;;;6250748;22;20019;-92
2022/03/10 12:13:44;;;;;;;33.20;15.35;;;13.00;9.80;;;;;;6276829;22;20035;-94
2022/03/10 12:20:21;;;;;;;33.88;15.63;;;13.20;6.10;;;;;;6277928;22;20008;-92
2022/03/10 12:23:12;;;;;;;32.08;15.20;;;13.30;6.30;;;;;;6227039;22;20043;-93
2022/03/10 12:25:44;;;;;;;31.73;15.77;;;13.30;4.70;;;;;;6251344;22;20011;-91
2022/03/10 12:28:30;;;;;;;27.02;14.63;;;13.40;5.90;;;;;;6251156;22;20058;-93
2022/03/10 12:31:02;;;;;;;30.40;14.15;;;13.40;5.50;;;;;;6250641;22;20439;-92
2022/03/10 12:33:35;;;;;;;29.92;15.65;;;13.40;5.70;;;;;;6250108;22;20443;-93
2022/03/10 12:36:09;;;;;;;29.48;13.43;;;13.60;4.40;;;;;;6250943;22;20131;-93
2022/03/10 12:38:45;;;;;;;28.00;13.77;;;13.60;4.40;;;;;;6251995;22;20020;-93
2022/03/10 12:41:17;;;;;;;30.50;15.35;;;13.60;3.60;;;;;;6251113;22;20091;-92
2022/03/10 12:43:56;;;;;;;29.95;15.55;;;13.70;5.30;;;;;;6283671;22;20066;-91
2022/03/10 12:46:33;;;;;;;36.03;15.40;;;13.70;3.70;;;;;;6235465;22;20047;-93
2022/03/10 12:49:20;;;;;;;36.30;16.60;;;13.80;3.60;;;;;;6283342;22;20027;-92
2022/03/10 12:51:51;;;;;;;28.95;14.02;;;13.80;3.90;;;;;;6251153;22;20046;-94
2022/03/10 12:54:27;;;;;;;27.40;13.85;;;13.80;4.70;;;;;;6275606;22;20431;-93
2022/03/10 12:57:04;;;;;;;32.38;14.68;;;13.80;4.60;;;;;;6250655;22;20020;-93
2022/03/10 12:59:36;;;;;;;24.50;14.15;;;13.90;3.20;;;;;;6276577;22;20099;-93
2022/03/10 13:02:28;;;;;;;30.92;14.68;;;13.90;2.90;;;;;;6275960;22;20022;-93
2022/03/10 13:05:02;;;;;;;33.13;14.73;;;13.90;4.80;;;;;;6250166;22;20026;-93